Time;durP1;ratioP1;P1;durP2;ratioP2;P2;SDS_P1;SDS_P2;PMS_P1;PMS_P2;Temp;Humidity;BMP_temperature;BMP_pressure;BME280_temperature;BME280_humidity;BME280_pressure;Samples;Min_cycle;Max_cycle;Signal;HPM_P1;HPM_P2
2022/07/19 00:00:51;;;;;;;4.50;2.83;;;;;;;19.04;66.37;101287.16;2006865;29;20065;-64
2022/07/19 00:01:55;;;;;;;7.47;3.28;;;;;;;19.04;66.17;101279.00;2010478;29;20036;-65
2022/07/19 00:02:58;;;;;;;6.18;3.20;;;;;;;19.04;66.35;101282.53;2023611;29;20059;-64
2022/07/19 00:04:02;;;;;;;7.60;3.38;;;;;;;19.05;66.29;101286.88;2022779;29;20048;-64
2022/07/19 00:05:09;;;;;;;7.25;3.15;;;;;;;19.04;66.36;101281.72;2015989;29;20580;-64
2022/07/19 00:06:16;;;;;;;3.95;3.03;;;;;;;19.04;66.22;101289.91;2029802;29;20060;-64
2022/07/19 00:07:18;;;;;;;6.00;2.92;;;;;;;19.04;66.14;101282.53;2031198;29;20044;-65
2022/07/19 00:08:24;;;;;;;6.68;3.08;;;;;;;19.05;66.20;101284.16;2030508;29;20048;-64
2022/07/19 00:09:31;;;;;;;6.18;3.10;;;;;;;19.05;66.20;101277.91;2015484;29;20065;-64
2022/07/19 00:10:37;;;;;;;4.95;2.72;;;;;;;19.05;66.17;101278.69;2023663;29;20045;-64
2022/07/19 00:11:39;;;;;;;8.68;3.38;;;;;;;19.07;66.32;101284.59;2023267;29;20048;-64
2022/07/19 00:12:43;;;;;;;6.35;3.05;;;;;;;19.05;65.95;101284.16;2029769;29;20067;-65
2022/07/19 00:13:47;;;;;;;4.85;3.05;;;;;;;19.06;65.99;101285.75;2030607;29;20036;-65
2022/07/19 00:14:52;;;;;;;5.55;3.17;;;;;;;19.06;65.74;101280.28;2011587;29;20726;-64
2022/07/19 00:15:54;;;;;;;5.30;3.25;;;;;;;19.07;65.61;101281.09;2025010;29;20028;-64
2022/07/19 00:17:01;;;;;;;5.78;3.20;;;;;;;19.05;65.43;101281.41;2024345;29;20497;-64
2022/07/19 00:18:03;;;;;;;7.55;3.22;;;;;;;19.07;65.36;101281.88;2012730;29;20132;-65
2022/07/19 00:19:10;;;;;;;5.47;2.95;;;;;;;19.07;65.58;101276.44;2017636;29;20446;-65
2022/07/19 00:20:15;;;;;;;4.55;2.78;;;;;;;19.06;65.49;101274.84;2022454;29;20559;-64
2022/07/19 00:21:19;;;;;;;5.35;3.72;;;;;;;19.06;65.33;101269.38;2032208;29;20039;-64
2022/07/19 00:22:24;;;;;;;7.28;3.20;;;;;;;19.07;65.32;101270.19;2032795;29;20047;-64
2022/07/19 00:23:27;;;;;;;8.63;4.47;;;;;;;19.06;65.21;101272.09;2031748;29;20060;-64
2022/07/19 00:24:30;;;;;;;4.82;3.15;;;;;;;19.07;65.25;101281.88;2032216;29;20042;-64
2022/07/19 00:25:35;;;;;;;6.30;3.17;;;;;;;19.08;65.24;101278.06;2029686;29;20036;-64
2022/07/19 00:26:37;;;;;;;7.03;3.65;;;;;;;19.08;65.16;101271.81;2031716;29;20524;-64
2022/07/19 00:27:42;;;;;;;4.55;2.88;;;;;;;19.08;65.18;101280.78;2014275;29;20049;-64
2022/07/19 00:28:49;;;;;;;6.97;3.72;;;;;;;19.08;65.10;101283.50;2017075;29;20052;-64
2022/07/19 00:29:54;;;;;;;8.75;3.45;;;;;;;19.07;65.21;101281.88;2017169;29;20117;-65
2022/07/19 00:31:04;;;;;;;10.73;3.53;;;;;;;19.08;65.16;101280.78;2025727;29;20049;-64
2022/07/19 00:32:11;;;;;;;6.00;3.10;;;;;;;19.09;65.24;101279.66;2032320;29;20060;-64
2022/07/19 00:33:14;;;;;;;5.53;2.88;;;;;;;19.08;65.34;101272.59;2032119;29;20086;-64
2022/07/19 00:34:18;;;;;;;4.90;3.03;;;;;;;19.09;65.18;101274.19;2031600;29;20444;-64
2022/07/19 00:35:21;;;;;;;7.78;3.63;;;;;;;19.10;65.33;101275.00;2024973;29;20060;-64
2022/07/19 00:36:27;;;;;;;6.68;3.33;;;;;;;19.09;65.40;101274.19;2024489;29;20049;-63
2022/07/19 00:37:29;;;;;;;6.13;3.42;;;;;;;19.09;65.29;101274.19;2024551;29;20037;-64
2022/07/19 00:38:31;;;;;;;5.07;3.03;;;;;;;19.10;65.36;101275.00;2018664;29;20041;-64
2022/07/19 00:39:34;;;;;;;6.45;3.67;;;;;;;19.11;65.39;101280.16;2024852;29;20454;-64
2022/07/19 00:40:40;;;;;;;5.57;3.17;;;;;;;19.11;65.62;101271.97;2032038;29;20488;-64
2022/07/19 00:41:45;;;;;;;5.82;3.47;;;;;;;19.10;65.27;101273.06;2031203;29;20487;-64
2022/07/19 00:42:56;;;;;;;6.53;3.83;;;;;;;19.11;65.40;101276.63;2016595;29;20075;-64
2022/07/19 00:43:59;;;;;;;6.97;3.42;;;;;;;19.13;65.38;101277.09;2018433;29;20518;-64
2022/07/19 00:45:03;;;;;;;7.85;3.47;;;;;;;19.12;65.27;101272.75;2024243;29;20134;-65
2022/07/19 00:46:18;;;;;;;6.63;3.58;;;;;;;19.12;65.38;101273.56;2027204;29;20501;-64
2022/07/19 00:47:23;;;;;;;5.75;3.33;;;;;;;19.11;65.36;101271.97;2024310;29;20048;-64
2022/07/19 00:48:29;;;;;;;5.38;3.35;;;;;;;19.12;65.38;101267.31;2017054;29;20045;-64
2022/07/19 00:49:31;;;;;;;6.63;3.83;;;;;;;19.11;65.32;101280.16;2023658;29;20075;-64
2022/07/19 00:50:34;;;;;;;6.07;3.20;;;;;;;19.11;65.29;101266.53;2025033;29;20051;-63
2022/07/19 00:51:40;;;;;;;7.32;3.15;;;;;;;19.10;65.25;101264.09;2030592;29;20051;-63
2022/07/19 00:52:46;;;;;;;6.35;3.50;;;;;;;19.11;65.33;101269.25;2024113;29;20071;-64
2022/07/19 00:53:52;;;;;;;5.53;3.40;;;;;;;19.12;65.32;101273.56;2024884;29;20122;-64
2022/07/19 00:54:54;;;;;;;7.43;3.45;;;;;;;19.10;65.24;101270.34;2031692;29;20048;-64
2022/07/19 00:56:02;;;;;;;7.10;3.83;;;;;;;19.10;65.24;101264.91;2024216;29;20059;-64
2022/07/19 00:57:05;;;;;;;4.88;3.08;;;;;;;19.11;65.42;101271.16;2024038;29;20049;-64
2022/07/19 00:58:10;;;;;;;6.40;3.67;;;;;;;19.11;65.31;101266.53;2024313;29;20572;-63
2022/07/19 00:59:17;;;;;;;6.70;3.25;;;;;;;19.10;65.24;101264.91;2027670;29;20048;-64
2022/07/19 01:00:20;;;;;;;5.68;3.40;;;;;;;19.11;65.30;101263.78;2032231;29;20035;-64
2022/07/19 01:01:22;;;;;;;6.70;3.40;;;;;;;19.11;65.38;101263.00;2024059;29;20417;-64
2022/07/19 01:02:29;;;;;;;9.93;3.55;;;;;;;19.11;65.49;101266.53;2031126;29;20444;-64
2022/07/19 01:03:36;;;;;;;6.57;3.22;;;;;;;19.11;64.97;101269.25;2023617;29;20474;-64
2022/07/19 01:04:40;;;;;;;6.13;3.42;;;;;;;19.11;65.25;101266.53;2024415;29;20043;-64
2022/07/19 01:05:46;;;;;;;4.60;3.10;;;;;;;19.10;65.05;101264.91;2025053;29;20596;-64
2022/07/19 01:06:53;;;;;;;5.68;3.15;;;;;;;19.10;64.99;101262.16;2016574;29;20040;-64
2022/07/19 01:07:57;;;;;;;6.43;3.33;;;;;;;19.11;64.95;101263.00;2010485;29;20422;-64
2022/07/19 01:09:07;;;;;;;5.88;3.13;;;;;;;19.10;64.80;101264.09;2023676;29;20116;-64
2022/07/19 01:10:18;;;;;;;6.90;3.30;;;;;;;19.10;64.93;101259.44;2011600;29;20045;-64
2022/07/19 01:11:22;;;;;;;5.78;3.30;;;;;;;19.11;64.76;101255.63;2011343;29;20058;-64
2022/07/19 01:12:28;;;;;;;6.53;3.40;;;;;;;19.11;64.67;101255.63;2024838;29;20044;-64
2022/07/19 01:13:35;;;;;;;6.28;3.40;;;;;;;19.10;64.77;101259.44;2032014;29;20404;-64
2022/07/19 01:14:39;;;;;;;6.03;3.63;;;;;;;19.10;64.64;101248.53;2032746;29;20044;-64
2022/07/19 01:15:42;;;;;;;8.85;3.50;;;;;;;19.11;64.62;101263.78;2032357;29;20059;-64
2022/07/19 01:16:46;;;;;;;6.47;3.58;;;;;;;19.10;64.57;101264.91;2032542;29;20051;-64
2022/07/19 01:17:54;;;;;;;5.90;3.45;;;;;;;19.10;64.56;101264.91;2032698;29;20420;-64
2022/07/19 01:18:56;;;;;;;6.72;3.30;;;;;;;19.11;64.53;101263.00;2032474;29;20051;-65
2022/07/19 01:20:00;;;;;;;6.88;3.25;;;;;;;19.11;64.36;101263.78;2032072;29;20044;-64
2022/07/19 01:21:07;;;;;;;5.78;3.45;;;;;;;19.11;64.26;101266.53;2024453;29;20052;-64
2022/07/19 01:22:10;;;;;;;6.57;3.50;;;;;;;19.10;64.11;101262.16;2017429;29;20052;-64
2022/07/19 01:23:14;;;;;;;8.23;4.28;;;;;;;19.11;64.19;101258.34;2024998;29;20049;-64
2022/07/19 01:24:15;;;;;;;7.90;3.50;;;;;;;19.11;64.01;101261.06;2032204;29;20353;-64
2022/07/19 01:25:23;;;;;;;8.40;3.60;;;;;;;19.11;63.99;101258.34;2032468;29;20059;-63
2022/07/19 01:26:30;;;;;;;6.63;3.17;;;;;;;19.12;63.84;101253.69;2032016;29;20047;-64
2022/07/19 01:27:38;;;;;;;6.63;3.58;;;;;;;19.12;63.76;101251.75;2016994;29;20056;-65
2022/07/19 01:28:40;;;;;;;6.47;3.38;;;;;;;19.12;63.74;101251.75;2018594;29;20043;-64
2022/07/19 01:29:44;;;;;;;5.93;3.63;;;;;;;19.14;63.54;101251.44;2024706;29;20060;-64
2022/07/19 01:30:50;;;;;;;5.57;3.38;;;;;;;19.14;63.49;101254.19;2032038;29;20051;-64
2022/07/19 01:31:56;;;;;;;6.78;3.92;;;;;;;19.14;63.30;101246.81;2024344;29;20044;-65
2022/07/19 01:32:58;;;;;;;7.20;3.47;;;;;;;19.13;63.12;101253.34;2023991;29;20060;-64
2022/07/19 01:34:05;;;;;;;7.38;3.80;;;;;;;19.14;63.11;101249.53;2024819;29;20678;-64
2022/07/19 01:35:08;;;;;;;7.57;3.30;;;;;;;19.14;62.92;101252.25;2030308;29;20547;-64
2022/07/19 01:36:13;;;;;;;7.57;3.67;;;;;;;19.14;62.98;101249.53;2025273;29;20063;-64
2022/07/19 01:37:15;;;;;;;5.50;3.33;;;;;;;19.15;63.09;101244.88;2010051;29;20433;-64
2022/07/19 01:38:24;;;;;;;6.72;3.90;;;;;;;19.14;62.96;101243.28;2002088;29;20062;-65
2022/07/19 01:39:29;;;;;;;6.55;3.50;;;;;;;19.14;62.89;101238.63;2010020;29;20080;-64
2022/07/19 01:40:33;;;;;;;6.65;3.75;;;;;;;19.14;62.96;101244.06;2010041;29;20494;-64
2022/07/19 01:41:43;;;;;;;7.85;3.92;;;;;;;19.13;63.01;101242.44;2009250;29;20410;-64
2022/07/19 01:42:47;;;;;;;6.68;3.85;;;;;;;19.13;62.92;101247.91;2010752;29;20041;-65
2022/07/19 01:43:54;;;;;;;5.65;3.55;;;;;;;19.14;62.98;101249.53;2024372;29;20044;-64
2022/07/19 01:45:05;;;;;;;7.53;3.63;;;;;;;19.15;63.13;101242.16;2024138;29;20036;-64
2022/07/19 01:46:07;;;;;;;9.90;4.05;;;;;;;19.15;63.04;101251.13;2016671;29;20060;-64
2022/07/19 01:47:10;;;;;;;6.65;3.88;;;;;;;19.14;63.15;101237.81;2009246;29;20038;-64
2022/07/19 01:48:13;;;;;;;6.70;3.92;;;;;;;19.14;63.00;101238.63;2019494;29;20055;-64
2022/07/19 01:49:17;;;;;;;6.32;3.70;;;;;;;19.14;62.80;101241.34;2032666;29;20048;-64
2022/07/19 01:50:20;;;;;;;7.45;3.55;;;;;;;19.12;62.96;101238.13;2032659;29;20056;-64
2022/07/19 01:51:24;;;;;;;5.20;3.28;;;;;;;19.14;62.94;101243.28;2030092;29;20489;-64
2022/07/19 01:52:27;;;;;;;8.90;3.83;;;;;;;19.15;63.02;101247.59;2029011;29;20055;-65
2022/07/19 01:53:29;;;;;;;7.07;3.92;;;;;;;19.16;63.08;101241.00;2024396;29;20052;-64
2022/07/19 01:54:31;;;;;;;5.25;3.70;;;;;;;19.15;63.08;101244.88;2031947;29;20051;-64
2022/07/19 01:55:35;;;;;;;6.47;3.45;;;;;;;19.15;63.16;101234.75;2031753;29;20047;-64
2022/07/19 01:56:43;;;;;;;7.88;4.18;;;;;;;19.14;63.18;101238.63;2024574;29;20056;-64
2022/07/19 01:57:46;;;;;;;7.57;4.13;;;;;;;19.16;62.92;101241.00;2032133;29;20066;-64
2022/07/19 01:58:52;;;;;;;7.05;3.95;;;;;;;19.15;62.90;101236.69;2032506;29;20481;-64
2022/07/19 01:59:57;;;;;;;7.63;3.85;;;;;;;19.15;63.05;101240.22;2031364;29;20527;-65
2022/07/19 02:00:58;;;;;;;7.68;3.50;;;;;;;19.15;62.98;101234.75;2023987;29;20583;-65
2022/07/19 02:02:04;;;;;;;7.55;3.72;;;;;;;19.15;62.96;101229.31;2023510;29;20064;-65
2022/07/19 02:03:06;;;;;;;6.18;4.07;;;;;;;19.16;63.10;101230.09;2024260;29;20416;-64
2022/07/19 02:04:12;;;;;;;6.00;3.63;;;;;;;19.16;62.96;101230.91;2009182;29;20046;-66
2022/07/19 02:05:15;;;;;;;7.15;4.00;;;;;;;19.15;63.09;101223.84;2008572;29;20069;-65
2022/07/19 02:06:18;;;;;;;9.57;4.07;;;;;;;19.18;63.18;101228.66;2024447;29;20054;-64
2022/07/19 02:07:20;;;;;;;5.18;3.47;;;;;;;19.17;63.14;101216.19;2031608;29;20060;-64
2022/07/19 02:08:25;;;;;;;6.13;3.60;;;;;;;19.11;63.10;101216.66;2031514;29;20056;-64
2022/07/19 02:09:28;;;;;;;6.55;3.85;;;;;;;19.19;63.20;101216.63;2031841;29;20056;-64
2022/07/19 02:10:30;;;;;;;6.40;3.50;;;;;;;19.18;63.07;101228.66;2031306;29;20460;-64
2022/07/19 02:11:34;;;;;;;5.85;3.67;;;;;;;19.18;63.32;101225.94;2031540;29;20055;-65
2022/07/19 02:12:41;;;;;;;5.80;3.67;;;;;;;19.20;63.55;101231.88;2031939;29;20040;-65
2022/07/19 02:13:49;;;;;;;6.95;3.45;;;;;;;19.20;63.92;101214.75;2017804;29;20053;-65
2022/07/19 02:14:52;;;;;;;6.00;3.58;;;;;;;19.21;63.63;101219.84;1995739;29;20058;-65
2022/07/19 02:15:58;;;;;;;6.63;3.72;;;;;;;19.23;63.62;101211.38;2010377;29;20053;-65
2022/07/19 02:17:05;;;;;;;5.80;3.65;;;;;;;19.22;63.61;101210.53;2032258;29;20048;-65
2022/07/19 02:18:07;;;;;;;5.70;3.53;;;;;;;19.24;63.57;101214.91;2031722;29;20063;-64
2022/07/19 02:19:13;;;;;;;6.55;3.50;;;;;;;19.23;63.33;101214.09;2016878;29;20053;-64
2022/07/19 02:20:25;;;;;;;6.18;3.58;;;;;;;19.21;63.24;101211.69;2016818;29;20041;-64
2022/07/19 02:21:30;;;;;;;8.20;3.88;;;;;;;19.20;63.36;101206.56;2024221;29;20048;-64
2022/07/19 02:22:32;;;;;;;6.93;3.78;;;;;;;19.21;63.21;101211.69;2024765;29;20040;-64
2022/07/19 02:23:38;;;;;;;7.82;3.58;;;;;;;19.19;63.44;101208.47;2024598;29;20049;-65
2022/07/19 02:24:42;;;;;;;9.05;3.65;;;;;;;19.20;63.70;101215.53;2024017;29;20044;-65
2022/07/19 02:25:44;;;;;;;7.75;3.85;;;;;;;19.21;63.80;101216.34;2015144;29;20093;-64
2022/07/19 02:26:46;;;;;;;5.35;3.47;;;;;;;19.21;63.96;101213.59;2009254;29;20041;-65
2022/07/19 02:27:53;;;;;;;5.47;3.50;;;;;;;19.21;63.85;101211.69;2001272;29;20432;-64
2022/07/19 02:29:00;;;;;;;6.50;3.75;;;;;;;19.22;63.90;101218.72;2011138;29;20072;-64
2022/07/19 02:30:08;;;;;;;9.48;3.50;;;;;;;19.19;64.03;101208.47;2023322;29;20531;-64
2022/07/19 02:31:13;;;;;;;5.88;3.45;;;;;;;19.19;64.15;101208.47;2026999;29;20059;-64
2022/07/19 02:32:17;;;;;;;7.28;3.92;;;;;;;19.20;64.09;101212.00;2031559;29;20052;-64
2022/07/19 02:33:22;;;;;;;4.65;3.20;;;;;;;19.19;64.40;101208.47;2026540;29;20036;-64
2022/07/19 02:34:25;;;;;;;7.78;3.75;;;;;;;19.21;64.33;101208.16;2025201;29;20040;-64
2022/07/19 02:35:30;;;;;;;8.90;3.90;;;;;;;19.21;64.50;101211.69;2031767;29;20044;-64
2022/07/19 02:36:37;;;;;;;10.50;4.00;;;;;;;19.24;64.67;101214.91;2024119;29;20428;-65
2022/07/19 02:37:43;;;;;;;4.70;3.10;;;;;;;19.25;64.61;101216.50;2017371;29;20049;-65
2022/07/19 02:38:47;;;;;;;7.75;3.53;;;;;;;19.26;64.66;101209.91;2031497;29;20174;-65
2022/07/19 02:39:52;;;;;;;8.10;3.60;;;;;;;19.25;64.76;101211.84;2031700;29;20609;-65
2022/07/19 02:40:55;;;;;;;6.13;3.65;;;;;;;19.26;65.03;101212.63;2031829;29;20047;-65
2022/07/19 02:42:02;;;;;;;8.00;3.85;;;;;;;19.26;65.05;101207.19;2009013;29;20061;-65
2022/07/19 02:43:06;;;;;;;5.30;3.30;;;;;;;19.27;65.00;101211.53;2018588;29;20060;-65
2022/07/19 02:44:09;;;;;;;6.20;3.55;;;;;;;19.26;64.94;101207.97;2032239;29;20067;-66
2022/07/19 02:45:13;;;;;;;6.18;3.80;;;;;;;19.27;65.08;101209.59;2032446;29;20040;-66
2022/07/19 02:46:19;;;;;;;7.45;3.10;;;;;;;19.28;65.23;101205.75;2031725;29;20059;-65
2022/07/19 02:47:25;;;;;;;9.18;3.55;;;;;;;19.27;65.14;101204.16;2031785;29;20505;-66
2022/07/19 02:48:32;;;;;;;7.43;3.70;;;;;;;19.28;65.37;101210.41;2039603;29;20499;-65
2022/07/19 02:49:36;;;;;;;;;;;;;;;19.30;65.26;101203.50;2032252;29;20044;-65
2022/07/19 02:50:39;;;;;;;4.75;3.17;;;;;;;19.30;65.27;101208.16;2030931;29;19915;-65
2022/07/19 02:51:41;;;;;;;5.93;3.42;;;;;;;19.29;65.37;101206.53;2037867;29;20055;-65
2022/07/19 02:52:46;;;;;;;6.72;3.72;;;;;;;19.30;65.79;101208.16;2031685;29;20035;-66
2022/07/19 02:53:49;;;;;;;5.32;3.67;;;;;;;19.31;65.69;101207.03;2017324;29;20041;-66
2022/07/19 02:54:54;;;;;;;6.10;3.30;;;;;;;19.29;65.59;101201.88;2010564;29;20375;-65
2022/07/19 02:55:57;;;;;;;5.72;3.42;;;;;;;19.31;65.51;101207.03;2018794;29;20053;-65
2022/07/19 02:56:59;;;;;;;6.03;3.67;;;;;;;19.30;65.62;101202.72;2032151;29;20633;-65
2022/07/19 02:58:07;;;;;;;7.70;3.67;;;;;;;19.30;65.77;101208.16;2017749;29;20568;-65
2022/07/19 02:59:09;;;;;;;5.72;3.47;;;;;;;19.29;65.76;101206.53;2018058;29;20053;-65
2022/07/19 03:00:13;;;;;;;9.30;3.65;;;;;;;19.30;65.73;101202.72;2026053;29;20386;-66
2022/07/19 03:01:18;;;;;;;5.75;3.55;;;;;;;19.30;65.79;101208.97;2030262;29;20044;-65
2022/07/19 03:02:22;;;;;;;6.03;3.65;;;;;;;19.30;65.96;101202.72;2017608;29;20084;-65
2022/07/19 03:03:47;;;;;;;7.05;3.00;;;;;;;19.31;65.94;101210.56;2018972;29;20045;-65
2022/07/19 03:04:52;;;;;;;6.65;3.50;;;;;;;19.33;66.06;101204.78;2033611;29;20079;-65
2022/07/19 03:05:58;;;;;;;6.85;3.47;;;;;;;19.33;66.04;101207.50;2017605;29;20056;-65
2022/07/19 03:07:00;;;;;;;6.82;3.25;;;;;;;19.32;66.22;101197.72;2019051;29;20060;-64
2022/07/19 03:08:07;;;;;;;5.80;3.22;;;;;;;19.33;66.10;101204.78;2032576;29;20063;-65
2022/07/19 03:09:13;;;;;;;8.13;3.73;;;;;;;19.34;66.25;101206.38;2033550;29;20074;-66
2022/07/19 03:10:20;;;;;;;11.13;4.75;;;;;;;19.34;66.01;101203.66;2032836;29;20296;-65
2022/07/19 03:11:25;;;;;;;9.32;3.63;;;;;;;19.34;66.12;101209.91;2032824;29;20060;-64
2022/07/19 03:12:28;;;;;;;6.80;3.40;;;;;;;19.33;66.17;101202.06;2032907;29;20416;-64
2022/07/19 03:13:33;;;;;;;7.25;3.47;;;;;;;19.34;66.33;101209.13;2017734;29;20052;-64
2022/07/19 03:14:39;;;;;;;5.97;3.65;;;;;;;19.32;66.23;101197.72;2018490;29;20064;-64
2022/07/19 03:15:43;;;;;;;5.72;3.60;;;;;;;19.35;66.14;101202.53;2032992;29;20056;-64
2022/07/19 03:16:45;;;;;;;5.25;3.17;;;;;;;19.33;66.20;101200.13;2024763;29;20075;-64
2022/07/19 03:17:50;;;;;;;5.32;3.22;;;;;;;19.35;66.26;101210.72;2025728;29;20055;-65
2022/07/19 03:18:53;;;;;;;8.10;3.72;;;;;;;19.35;66.16;101200.59;2032360;29;20043;-64
2022/07/19 03:20:00;;;;;;;6.75;3.95;;;;;;;19.36;66.22;101202.22;2032868;29;20036;-64
2022/07/19 03:21:07;;;;;;;7.88;3.72;;;;;;;19.36;66.16;101190.50;2027908;29;20048;-64
2022/07/19 03:22:12;;;;;;;6.68;3.50;;;;;;;19.37;66.20;101192.09;2026847;29;20053;-64
2022/07/19 03:23:17;;;;;;;5.55;3.30;;;;;;;19.37;66.21;101192.91;2033467;29;20075;-64
2022/07/19 03:24:22;;;;;;;6.43;3.17;;;;;;;19.37;66.21;101186.66;2025328;29;20059;-64
2022/07/19 03:25:25;;;;;;;10.70;3.50;;;;;;;19.38;66.34;101199.16;2029345;29;20601;-64
2022/07/19 03:26:33;;;;;;;9.95;3.50;;;;;;;19.37;66.34;101192.91;2032898;29;20048;-64
2022/07/19 03:27:35;;;;;;;5.28;3.50;;;;;;;19.37;66.52;101187.44;2017347;29;20057;-64
2022/07/19 03:28:42;;;;;;;4.65;3.20;;;;;;;19.38;66.46;101194.50;2018191;29;20060;-65
2022/07/19 03:29:43;;;;;;;8.00;3.42;;;;;;;19.38;66.55;101194.50;2011510;29;20398;-64
2022/07/19 03:30:45;;;;;;;4.80;3.35;;;;;;;19.39;66.75;101196.13;2009895;29;20048;-64
2022/07/19 03:31:49;;;;;;;7.25;3.67;;;;;;;19.40;66.53;101202.38;2009670;29;20061;-65
2022/07/19 03:32:52;;;;;;;6.97;3.53;;;;;;;19.40;66.40;101203.16;2017973;29;20343;-64
2022/07/19 03:33:57;;;;;;;6.50;3.40;;;;;;;19.41;66.43;101203.97;2017173;29;20489;-64
2022/07/19 03:35:00;;;;;;;7.00;3.63;;;;;;;19.42;66.34;101205.59;2009597;29;20073;-65
2022/07/19 03:36:07;;;;;;;6.70;3.28;;;;;;;19.41;66.60;101204.75;2017496;29;20446;-65
2022/07/19 03:37:11;;;;;;;7.97;3.78;;;;;;;19.42;66.34;101202.88;2024926;29;20128;-64
2022/07/19 03:38:16;;;;;;;7.15;3.60;;;;;;;19.43;66.58;101209.91;2017311;29;20041;-65
2022/07/19 03:39:21;;;;;;;5.75;3.40;;;;;;;19.44;66.48;101208.78;2019220;29;20454;-65
2022/07/19 03:40:25;;;;;;;6.53;3.30;;;;;;;19.44;66.47;101204.13;2025005;29;20044;-65
2022/07/19 03:41:27;;;;;;;11.07;3.60;;;;;;;19.44;66.56;101204.13;2017009;29;20057;-66
2022/07/19 03:42:37;;;;;;;8.10;3.85;;;;;;;19.45;66.62;101194.84;2025403;29;20060;-64
2022/07/19 03:43:45;;;;;;;7.18;3.45;;;;;;;19.45;66.54;101205.75;2030646;29;20051;-64
2022/07/19 03:44:57;;;;;;;5.32;3.28;;;;;;;19.44;66.91;101204.13;2031091;29;20040;-65
2022/07/19 03:45:59;;;;;;;6.47;3.80;;;;;;;19.46;66.86;101203.81;2033044;29;20056;-65
2022/07/19 03:47:01;;;;;;;7.05;3.65;;;;;;;19.48;66.82;101207.00;2024937;29;20059;-64
2022/07/19 03:48:04;;;;;;;5.32;3.15;;;;;;;19.48;66.80;101201.53;2006018;29;20053;-65
2022/07/19 03:49:07;;;;;;;5.95;3.67;;;;;;;19.51;66.82;101206.34;2018469;29;20057;-65
2022/07/19 03:50:11;;;;;;;7.05;3.45;;;;;;;19.52;66.85;101205.25;2025839;29;20058;-64
2022/07/19 03:51:14;;;;;;;6.35;3.67;;;;;;;19.52;66.79;101201.72;2024092;29;20800;-64
2022/07/19 03:52:16;;;;;;;7.20;3.70;;;;;;;19.51;66.71;101203.63;2025510;29;20089;-64
2022/07/19 03:53:21;;;;;;;6.18;3.72;;;;;;;19.52;66.64;101204.44;2024441;29;20060;-64
2022/07/19 03:54:23;;;;;;;9.02;3.75;;;;;;;19.52;66.64;101202.53;2025074;29;20044;-64
2022/07/19 03:55:27;;;;;;;6.53;3.60;;;;;;;19.52;66.55;101205.25;2021419;29;20041;-64
2022/07/19 03:56:33;;;;;;;5.05;3.35;;;;;;;19.54;66.74;101202.97;2010603;29;20041;-64
2022/07/19 03:57:37;;;;;;;5.88;3.50;;;;;;;19.54;66.60;101213.88;2018647;29;20068;-63
2022/07/19 03:58:42;;;;;;;5.80;3.40;;;;;;;19.56;66.57;101210.84;2032517;29;20063;-65
2022/07/19 03:59:47;;;;;;;7.93;3.03;;;;;;;19.55;66.64;101210.06;2031467;29;20040;-65
2022/07/19 04:00:50;;;;;;;5.47;3.80;;;;;;;19.55;66.81;101210.06;2032545;29;20062;-65
2022/07/19 04:01:57;;;;;;;5.78;3.47;;;;;;;19.57;66.51;101217.91;2024402;29;20060;-65
2022/07/19 04:03:02;;;;;;;8.18;3.50;;;;;;;19.57;66.46;101213.25;2026255;29;20509;-65
2022/07/19 04:04:11;;;;;;;6.07;3.50;;;;;;;19.59;66.51;101211.00;2032663;29;20052;-65
2022/07/19 04:05:13;;;;;;;6.38;3.75;;;;;;;19.59;66.72;101213.72;2024345;29;20057;-65
2022/07/19 04:06:15;;;;;;;5.78;3.50;;;;;;;19.60;66.62;101212.59;2023898;29;20525;-65
2022/07/19 04:07:18;;;;;;;8.93;3.58;;;;;;;19.62;66.97;101213.09;2032741;29;20047;-65
2022/07/19 04:08:24;;;;;;;7.13;3.42;;;;;;;19.62;66.83;101204.91;2017680;29;20041;-65
2022/07/19 04:09:27;;;;;;;6.38;3.65;;;;;;;19.63;66.72;101206.50;2010379;29;20409;-65
2022/07/19 04:10:32;;;;;;;8.93;3.50;;;;;;;19.64;67.06;101208.16;2017431;29;20067;-65
2022/07/19 04:11:34;;;;;;;8.00;3.85;;;;;;;19.65;66.98;101207.00;2024900;29;20048;-65
2022/07/19 04:12:42;;;;;;;8.77;3.60;;;;;;;19.66;66.82;101205.88;2017283;29;20053;-65
2022/07/19 04:13:44;;;;;;;5.28;3.40;;;;;;;19.67;66.79;101202.06;2024475;29;20060;-65
2022/07/19 04:14:46;;;;;;;6.30;3.40;;;;;;;19.68;66.76;101200.91;2009999;29;20057;-65
2022/07/19 04:15:48;;;;;;;10.45;3.70;;;;;;;19.70;66.56;101206.03;2001724;29;20038;-65
2022/07/19 04:16:49;;;;;;;6.15;3.50;;;;;;;19.70;66.77;101205.22;1994390;29;20053;-65
2022/07/19 04:17:54;;;;;;;5.93;3.58;;;;;;;19.71;66.63;101190.50;2017120;29;20056;-65
2022/07/19 04:19:02;;;;;;;8.32;3.97;;;;;;;19.71;66.51;101196.75;2026823;29;20045;-65
2022/07/19 04:20:10;;;;;;;6.15;3.63;;;;;;;19.73;66.53;101208.09;2032544;29;20884;-64
2022/07/19 04:21:13;;;;;;;9.07;3.55;;;;;;;19.75;66.51;101208.59;2025847;29;20051;-65
2022/07/19 04:22:18;;;;;;;5.28;3.30;;;;;;;19.75;66.34;101203.13;2024712;29;20567;-64
2022/07/19 04:23:23;;;;;;;6.05;3.53;;;;;;;19.78;66.21;101201.69;2024571;29;20063;-65
2022/07/19 04:24:28;;;;;;;8.60;3.45;;;;;;;19.80;66.28;101199.44;2017905;29;20052;-64
2022/07/19 04:25:30;;;;;;;8.48;3.35;;;;;;;19.80;66.28;101194.78;2016417;29;20063;-64
2022/07/19 04:26:38;;;;;;;9.75;3.35;;;;;;;19.82;66.08;101191.72;2025090;29;20414;-65
2022/07/19 04:27:42;;;;;;;4.70;3.30;;;;;;;19.83;66.09;101198.78;2032505;29;20036;-66
2022/07/19 04:28:45;;;;;;;6.78;3.50;;;;;;;19.84;66.00;101194.94;2033059;29;20074;-65
2022/07/19 04:29:49;;;;;;;6.30;2.97;;;;;;;19.84;66.13;101192.22;2024320;29;20056;-64
2022/07/19 04:30:55;;;;;;;8.07;3.88;;;;;;;19.85;66.21;101191.06;2009656;29;20048;-64
2022/07/19 04:31:58;;;;;;;8.68;3.67;;;;;;;19.87;66.50;101194.28;2015602;29;20056;-62
2022/07/19 04:33:04;;;;;;;10.85;3.85;;;;;;;19.89;66.77;101192.00;2010212;29;20068;-63
2022/07/19 04:34:08;;;;;;;6.03;3.10;;;;;;;19.93;66.32;101193.00;2016224;29;20041;-63
2022/07/19 04:35:13;;;;;;;5.82;3.55;;;;;;;19.95;66.48;101185.25;2030856;29;20048;-64
2022/07/19 04:36:17;;;;;;;9.20;3.28;;;;;;;19.96;66.39;101186.09;2008155;29;20045;-63
2022/07/19 04:37:25;;;;;;;8.40;3.55;;;;;;;19.98;66.72;101194.72;2016493;29;20057;-63
2022/07/19 04:38:27;;;;;;;7.05;3.20;;;;;;;20.00;66.38;101189.75;2031541;29;20506;-63
2022/07/19 04:39:37;;;;;;;11.23;4.07;;;;;;;20.01;66.07;101189.41;2015383;29;20055;-62
2022/07/19 04:40:44;;;;;;;7.38;3.53;;;;;;;20.04;66.47;101187.97;2017094;29;20049;-63
2022/07/19 04:41:49;;;;;;;9.60;3.50;;;;;;;20.06;66.59;101191.19;2030957;29;20691;-62
2022/07/19 04:42:54;;;;;;;8.95;3.40;;;;;;;20.08;66.67;101184.25;2015113;29;20060;-62
2022/07/19 04:43:56;;;;;;;7.63;3.28;;;;;;;20.09;66.28;101183.13;2008696;29;20045;-63
2022/07/19 04:45:02;;;;;;;13.70;4.00;;;;;;;20.12;66.41;101179.75;2020364;29;20076;-63
2022/07/19 04:46:08;;;;;;;14.32;4.43;;;;;;;20.16;66.16;101184.56;2023462;29;20056;-63
2022/07/19 04:47:13;;;;;;;9.68;3.80;;;;;;;20.16;66.01;101190.00;2030845;29;20040;-62
2022/07/19 04:48:15;;;;;;;9.18;4.22;;;;;;;20.18;66.10;101185.03;2022856;29;20052;-64
2022/07/19 04:49:18;;;;;;;7.75;3.78;;;;;;;20.21;65.84;101181.63;2023824;29;20048;-63
2022/07/19 04:50:21;;;;;;;10.00;3.80;;;;;;;20.26;65.72;101189.63;2022931;29;20067;-64
2022/07/19 04:51:23;;;;;;;6.60;3.78;;;;;;;20.29;65.36;101184.31;2024280;29;20060;-63
2022/07/19 04:52:28;;;;;;;10.73;3.60;;;;;;;20.42;65.69;101185.22;2039550;29;20403;-64
2022/07/19 04:53:30;;;;;;;8.45;3.30;;;;;;;20.63;65.07;101187.22;2034775;29;20059;-64
2022/07/19 04:54:34;;;;;;;10.73;3.42;;;;;;;20.77;64.75;101187.75;2031017;29;20095;-63
2022/07/19 04:55:40;;;;;;;6.72;3.65;;;;;;;20.89;64.56;101189.78;2030838;29;20478;-64
2022/07/19 04:56:54;;;;;;;5.53;3.28;;;;;;;20.98;64.47;101188.56;2030257;29;20151;-64
2022/07/19 04:57:55;;;;;;;11.38;3.53;;;;;;;21.11;63.79;101183.16;2016857;29;20052;-63
2022/07/19 04:58:58;;;;;;;10.88;3.42;;;;;;;21.23;63.56;101188.69;2015472;29;20060;-64
2022/07/19 05:00:03;;;;;;;8.20;3.28;;;;;;;21.31;63.47;101190.53;2022949;29;20064;-64
2022/07/19 05:01:13;;;;;;;8.77;3.38;;;;;;;21.42;63.30;101186.28;2018527;29;20509;-64